RJCC/CTS METAR and TAF weather

Enter ICAO airport designator
Station Type Date Time Source
RJCC METAR 2021/07/28 04:30 UTC NOAA

RJCC 280430Z 17018KT 9999 FEW030 SCT060 30/23 Q1004 RMK 1CU030 3CU060 A2965


Station Type Date Time Source
RJCC Decoded METAR 2021/07/28 04:30 UTC NOAA

Chitose Ab, Japan (RJCC) 42-48N 141-40E 30M
Jul 28, 2021 - 12:30 AM EDT / 2021.07.28 0430 UTC
Wind: from the S (170 degrees) at 21 MPH (18 KT):0
Visibility: greater than 7 mile(s):0
Sky conditions: partly cloudy
Temperature: 86 F (30 C)
Heat index: 93.4 F (34.1 C):1
Dew Point: 73 F (23 C)
Relative Humidity: 66%
Pressure (altimeter): 29.65 in. Hg (1004 hPa)
ob: RJCC 280430Z 17018KT 9999 FEW030 SCT060 30/23 Q1004 RMK 1CU030 3CU060 A2965
cycle: 4

Station Type Date Time Source
RJCC TAF 2021/07/27 18:31 UTC NOAA

TAF RJCC 271705Z 2718/2900 01003KT 9999 FEW010 BKN025
BECMG 2800/2802 14012KT
TEMPO 2812/2818 FEW005 BKN008
TEMPO 2818/2900 3000 -SHRA BR FEW002 BKN005

Example: see airport list